sensor_id;sensor_type;location;lat;lon;timestamp;P1;durP1;ratioP1;P2;durP2;ratioP2
69534;SDS011;56754;51.568;5.048;2023-04-24T00:02:01;10.10;;;5.93;;
69534;SDS011;56754;51.568;5.048;2023-04-24T00:04:26;9.65;;;5.68;;
69534;SDS011;56754;51.568;5.048;2023-04-24T00:06:52;8.73;;;4.83;;
69534;SDS011;56754;51.568;5.048;2023-04-24T00:09:17;9.40;;;5.20;;
69534;SDS011;56754;51.568;5.048;2023-04-24T00:11:42;9.00;;;5.70;;
69534;SDS011;56754;51.568;5.048;2023-04-24T00:14:08;8.83;;;5.80;;
69534;SDS011;56754;51.568;5.048;2023-04-24T00:16:33;8.93;;;5.20;;
69534;SDS011;56754;51.568;5.048;2023-04-24T00:18:58;8.43;;;4.67;;
69534;SDS011;56754;51.568;5.048;2023-04-24T00:21:24;9.43;;;5.70;;
69534;SDS011;56754;51.568;5.048;2023-04-24T00:23:49;8.97;;;5.43;;
69534;SDS011;56754;51.568;5.048;2023-04-24T00:26:14;10.37;;;5.47;;
69534;SDS011;56754;51.568;5.048;2023-04-24T00:28:39;9.20;;;5.20;;
69534;SDS011;56754;51.568;5.048;2023-04-24T00:31:05;10.73;;;5.83;;
69534;SDS011;56754;51.568;5.048;2023-04-24T00:33:30;9.93;;;6.57;;
69534;SDS011;56754;51.568;5.048;2023-04-24T00:35:55;9.25;;;5.47;;
69534;SDS011;56754;51.568;5.048;2023-04-24T00:38:21;9.57;;;5.73;;
69534;SDS011;56754;51.568;5.048;2023-04-24T00:40:46;10.43;;;6.87;;
69534;SDS011;56754;51.568;5.048;2023-04-24T00:43:11;10.13;;;6.17;;
69534;SDS011;56754;51.568;5.048;2023-04-24T00:45:37;12.23;;;6.70;;
69534;SDS011;56754;51.568;5.048;2023-04-24T00:48:02;11.17;;;7.03;;
69534;SDS011;56754;51.568;5.048;2023-04-24T00:50:28;12.98;;;7.93;;
69534;SDS011;56754;51.568;5.048;2023-04-24T00:52:54;9.75;;;5.80;;
69534;SDS011;56754;51.568;5.048;2023-04-24T00:55:19;12.27;;;7.77;;
69534;SDS011;56754;51.568;5.048;2023-04-24T00:57:45;14.93;;;9.20;;
69534;SDS011;56754;51.568;5.048;2023-04-24T01:00:11;14.77;;;9.55;;
69534;SDS011;56754;51.568;5.048;2023-04-24T01:02:40;13.10;;;8.40;;
69534;SDS011;56754;51.568;5.048;2023-04-24T01:05:07;11.80;;;7.63;;
69534;SDS011;56754;51.568;5.048;2023-04-24T01:07:32;12.68;;;8.20;;
69534;SDS011;56754;51.568;5.048;2023-04-24T01:09:58;11.48;;;8.13;;
69534;SDS011;56754;51.568;5.048;2023-04-24T01:12:23;14.57;;;9.00;;
69534;SDS011;56754;51.568;5.048;2023-04-24T01:14:49;13.63;;;7.77;;
69534;SDS011;56754;51.568;5.048;2023-04-24T01:17:14;11.83;;;7.57;;
69534;SDS011;56754;51.568;5.048;2023-04-24T01:19:40;13.45;;;8.27;;
69534;SDS011;56754;51.568;5.048;2023-04-24T01:22:10;12.50;;;8.10;;
69534;SDS011;56754;51.568;5.048;2023-04-24T01:24:36;11.90;;;8.13;;
69534;SDS011;56754;51.568;5.048;2023-04-24T01:27:01;15.27;;;10.10;;
69534;SDS011;56754;51.568;5.048;2023-04-24T01:29:27;14.83;;;10.23;;
69534;SDS011;56754;51.568;5.048;2023-04-24T01:31:52;17.63;;;10.57;;
69534;SDS011;56754;51.568;5.048;2023-04-24T01:34:18;17.57;;;11.30;;
69534;SDS011;56754;51.568;5.048;2023-04-24T01:36:45;16.30;;;10.88;;
69534;SDS011;56754;51.568;5.048;2023-04-24T01:39:11;15.90;;;10.30;;
69534;SDS011;56754;51.568;5.048;2023-04-24T01:41:36;16.27;;;10.40;;
69534;SDS011;56754;51.568;5.048;2023-04-24T01:44:02;17.60;;;11.47;;
69534;SDS011;56754;51.568;5.048;2023-04-24T01:46:27;18.15;;;12.30;;
69534;SDS011;56754;51.568;5.048;2023-04-24T01:48:52;16.00;;;10.63;;
69534;SDS011;56754;51.568;5.048;2023-04-24T01:51:18;16.07;;;10.20;;
69534;SDS011;56754;51.568;5.048;2023-04-24T01:53:43;13.95;;;9.05;;
69534;SDS011;56754;51.568;5.048;2023-04-24T01:56:09;18.10;;;10.77;;
69534;SDS011;56754;51.568;5.048;2023-04-24T01:58:34;18.13;;;11.27;;
69534;SDS011;56754;51.568;5.048;2023-04-24T02:01:00;17.77;;;10.63;;
69534;SDS011;56754;51.568;5.048;2023-04-24T02:03:26;15.95;;;9.38;;
69534;SDS011;56754;51.568;5.048;2023-04-24T02:05:51;16.17;;;9.90;;
69534;SDS011;56754;51.568;5.048;2023-04-24T02:08:17;16.47;;;9.97;;
69534;SDS011;56754;51.568;5.048;2023-04-24T02:10:42;14.97;;;9.97;;
69534;SDS011;56754;51.568;5.048;2023-04-24T02:13:07;15.50;;;9.77;;
69534;SDS011;56754;51.568;5.048;2023-04-24T02:15:32;18.73;;;10.83;;
69534;SDS011;56754;51.568;5.048;2023-04-24T02:17:58;16.53;;;10.37;;
69534;SDS011;56754;51.568;5.048;2023-04-24T02:20:23;15.57;;;10.03;;
69534;SDS011;56754;51.568;5.048;2023-04-24T02:22:48;16.93;;;9.47;;
69534;SDS011;56754;51.568;5.048;2023-04-24T02:25:14;13.90;;;8.82;;
69534;SDS011;56754;51.568;5.048;2023-04-24T02:27:39;15.77;;;9.27;;
69534;SDS011;56754;51.568;5.048;2023-04-24T02:30:04;16.43;;;9.50;;
69534;SDS011;56754;51.568;5.048;2023-04-24T02:32:31;16.70;;;9.40;;
69534;SDS011;56754;51.568;5.048;2023-04-24T02:34:56;15.07;;;9.33;;
69534;SDS011;56754;51.568;5.048;2023-04-24T02:37:21;17.60;;;9.77;;
69534;SDS011;56754;51.568;5.048;2023-04-24T02:39:46;15.50;;;9.53;;
69534;SDS011;56754;51.568;5.048;2023-04-24T02:42:12;15.50;;;9.10;;
69534;SDS011;56754;51.568;5.048;2023-04-24T02:44:37;12.70;;;8.20;;
69534;SDS011;56754;51.568;5.048;2023-04-24T02:47:02;13.83;;;8.80;;
69534;SDS011;56754;51.568;5.048;2023-04-24T02:49:28;14.17;;;8.67;;
69534;SDS011;56754;51.568;5.048;2023-04-24T02:51:53;15.63;;;8.93;;
69534;SDS011;56754;51.568;5.048;2023-04-24T02:54:18;16.60;;;9.60;;
69534;SDS011;56754;51.568;5.048;2023-04-24T02:56:44;14.63;;;8.70;;
69534;SDS011;56754;51.568;5.048;2023-04-24T02:59:09;14.20;;;9.27;;
69534;SDS011;56754;51.568;5.048;2023-04-24T03:01:34;14.67;;;8.77;;
69534;SDS011;56754;51.568;5.048;2023-04-24T03:03:59;14.13;;;8.73;;
69534;SDS011;56754;51.568;5.048;2023-04-24T03:06:25;13.33;;;8.80;;
69534;SDS011;56754;51.568;5.048;2023-04-24T03:08:50;13.43;;;9.27;;
69534;SDS011;56754;51.568;5.048;2023-04-24T03:11:15;16.73;;;9.23;;
69534;SDS011;56754;51.568;5.048;2023-04-24T03:13:40;16.52;;;9.48;;
69534;SDS011;56754;51.568;5.048;2023-04-24T03:16:06;14.57;;;9.17;;
69534;SDS011;56754;51.568;5.048;2023-04-24T03:18:31;15.33;;;9.73;;
69534;SDS011;56754;51.568;5.048;2023-04-24T03:20:56;14.83;;;9.87;;
69534;SDS011;56754;51.568;5.048;2023-04-24T03:23:22;13.90;;;9.03;;
69534;SDS011;56754;51.568;5.048;2023-04-24T03:25:47;14.20;;;8.50;;
69534;SDS011;56754;51.568;5.048;2023-04-24T03:28:12;14.80;;;9.40;;
69534;SDS011;56754;51.568;5.048;2023-04-24T03:30:37;15.63;;;9.23;;
69534;SDS011;56754;51.568;5.048;2023-04-24T03:33:03;14.43;;;9.50;;
69534;SDS011;56754;51.568;5.048;2023-04-24T03:35:28;12.48;;;8.27;;
69534;SDS011;56754;51.568;5.048;2023-04-24T03:37:53;12.50;;;8.23;;
69534;SDS011;56754;51.568;5.048;2023-04-24T03:40:19;14.30;;;8.87;;
69534;SDS011;56754;51.568;5.048;2023-04-24T03:42:44;14.67;;;9.40;;
69534;SDS011;56754;51.568;5.048;2023-04-24T03:45:09;13.10;;;8.63;;
69534;SDS011;56754;51.568;5.048;2023-04-24T03:47:35;14.70;;;8.73;;
69534;SDS011;56754;51.568;5.048;2023-04-24T03:50:01;13.63;;;9.07;;
69534;SDS011;56754;51.568;5.048;2023-04-24T03:52:26;13.80;;;8.40;;
69534;SDS011;56754;51.568;5.048;2023-04-24T03:54:51;11.73;;;8.10;;
69534;SDS011;56754;51.568;5.048;2023-04-24T03:57:17;13.53;;;8.57;;
69534;SDS011;56754;51.568;5.048;2023-04-24T03:59:42;12.48;;;7.80;;
69534;SDS011;56754;51.568;5.048;2023-04-24T04:02:07;11.10;;;7.57;;
69534;SDS011;56754;51.568;5.048;2023-04-24T04:04:33;11.30;;;7.57;;
69534;SDS011;56754;51.568;5.048;2023-04-24T04:06:58;11.87;;;7.70;;
69534;SDS011;56754;51.568;5.048;2023-04-24T04:09:23;12.30;;;7.20;;
69534;SDS011;56754;51.568;5.048;2023-04-24T04:11:48;12.13;;;7.27;;
69534;SDS011;56754;51.568;5.048;2023-04-24T04:14:14;12.73;;;7.40;;
69534;SDS011;56754;51.568;5.048;2023-04-24T04:16:39;10.73;;;6.83;;
69534;SDS011;56754;51.568;5.048;2023-04-24T04:19:04;10.90;;;7.07;;
69534;SDS011;56754;51.568;5.048;2023-04-24T04:21:29;10.97;;;6.73;;
69534;SDS011;56754;51.568;5.048;2023-04-24T04:23:55;11.60;;;5.90;;
69534;SDS011;56754;51.568;5.048;2023-04-24T04:26:20;8.07;;;4.37;;
69534;SDS011;56754;51.568;5.048;2023-04-24T04:28:45;10.43;;;5.47;;
69534;SDS011;56754;51.568;5.048;2023-04-24T04:31:10;9.80;;;5.10;;
69534;SDS011;56754;51.568;5.048;2023-04-24T04:33:36;9.17;;;4.63;;
69534;SDS011;56754;51.568;5.048;2023-04-24T04:36:01;7.17;;;4.17;;
69534;SDS011;56754;51.568;5.048;2023-04-24T04:38:26;7.90;;;4.60;;
69534;SDS011;56754;51.568;5.048;2023-04-24T04:40:52;8.10;;;3.93;;
69534;SDS011;56754;51.568;5.048;2023-04-24T04:43:17;7.07;;;3.87;;
69534;SDS011;56754;51.568;5.048;2023-04-24T04:45:42;7.60;;;3.67;;
69534;SDS011;56754;51.568;5.048;2023-04-24T04:48:08;7.47;;;4.33;;
69534;SDS011;56754;51.568;5.048;2023-04-24T04:50:33;8.47;;;4.20;;
69534;SDS011;56754;51.568;5.048;2023-04-24T04:52:59;5.93;;;2.92;;
69534;SDS011;56754;51.568;5.048;2023-04-24T04:55:25;8.10;;;3.47;;
69534;SDS011;56754;51.568;5.048;2023-04-24T04:57:50;5.80;;;2.10;;
69534;SDS011;56754;51.568;5.048;2023-04-24T05:00:15;5.32;;;2.10;;
69534;SDS011;56754;51.568;5.048;2023-04-24T05:02:41;6.83;;;2.43;;
69534;SDS011;56754;51.568;5.048;2023-04-24T05:05:06;6.00;;;2.40;;
69534;SDS011;56754;51.568;5.048;2023-04-24T05:07:32;5.65;;;2.60;;
69534;SDS011;56754;51.568;5.048;2023-04-24T05:09:58;7.87;;;2.80;;
69534;SDS011;56754;51.568;5.048;2023-04-24T05:12:23;5.70;;;2.90;;
69534;SDS011;56754;51.568;5.048;2023-04-24T05:14:48;6.67;;;2.80;;
69534;SDS011;56754;51.568;5.048;2023-04-24T05:17:14;7.07;;;2.80;;
69534;SDS011;56754;51.568;5.048;2023-04-24T05:19:39;5.67;;;2.63;;
69534;SDS011;56754;51.568;5.048;2023-04-24T05:22:04;5.73;;;2.57;;
69534;SDS011;56754;51.568;5.048;2023-04-24T05:24:30;6.37;;;2.30;;
69534;SDS011;56754;51.568;5.048;2023-04-24T05:26:55;6.53;;;2.50;;
69534;SDS011;56754;51.568;5.048;2023-04-24T05:29:21;5.30;;;2.28;;
69534;SDS011;56754;51.568;5.048;2023-04-24T05:31:46;5.47;;;2.30;;
69534;SDS011;56754;51.568;5.048;2023-04-24T05:34:12;5.57;;;1.90;;
69534;SDS011;56754;51.568;5.048;2023-04-24T05:36:37;6.77;;;2.50;;
69534;SDS011;56754;51.568;5.048;2023-04-24T05:39:02;5.15;;;2.03;;
69534;SDS011;56754;51.568;5.048;2023-04-24T05:41:27;6.17;;;2.30;;
69534;SDS011;56754;51.568;5.048;2023-04-24T05:43:54;5.68;;;2.28;;
69534;SDS011;56754;51.568;5.048;2023-04-24T05:46:19;4.77;;;2.20;;
69534;SDS011;56754;51.568;5.048;2023-04-24T05:48:44;5.57;;;2.33;;
69534;SDS011;56754;51.568;5.048;2023-04-24T05:51:10;5.47;;;2.30;;
69534;SDS011;56754;51.568;5.048;2023-04-24T05:53:35;5.53;;;2.40;;
69534;SDS011;56754;51.568;5.048;2023-04-24T05:56:00;6.77;;;2.37;;
69534;SDS011;56754;51.568;5.048;2023-04-24T05:58:25;6.43;;;2.60;;
69534;SDS011;56754;51.568;5.048;2023-04-24T06:00:51;6.23;;;2.80;;
69534;SDS011;56754;51.568;5.048;2023-04-24T06:03:16;6.73;;;2.47;;
69534;SDS011;56754;51.568;5.048;2023-04-24T06:05:41;4.63;;;2.33;;
69534;SDS011;56754;51.568;5.048;2023-04-24T06:08:07;7.40;;;2.70;;
69534;SDS011;56754;51.568;5.048;2023-04-24T06:10:32;5.53;;;2.70;;
69534;SDS011;56754;51.568;5.048;2023-04-24T06:12:57;9.03;;;3.17;;
69534;SDS011;56754;51.568;5.048;2023-04-24T06:15:23;7.30;;;3.07;;
69534;SDS011;56754;51.568;5.048;2023-04-24T06:17:48;7.27;;;3.10;;
69534;SDS011;56754;51.568;5.048;2023-04-24T06:20:13;6.97;;;3.17;;
69534;SDS011;56754;51.568;5.048;2023-04-24T06:22:38;7.63;;;2.90;;
69534;SDS011;56754;51.568;5.048;2023-04-24T06:25:04;8.60;;;3.55;;
69534;SDS011;56754;51.568;5.048;2023-04-24T06:27:30;8.00;;;3.70;;
69534;SDS011;56754;51.568;5.048;2023-04-24T06:29:55;8.87;;;4.07;;
69534;SDS011;56754;51.568;5.048;2023-04-24T06:32:21;8.50;;;3.60;;
69534;SDS011;56754;51.568;5.048;2023-04-24T06:34:53;8.43;;;3.97;;
69534;SDS011;56754;51.568;5.048;2023-04-24T06:37:18;10.23;;;4.28;;
69534;SDS011;56754;51.568;5.048;2023-04-24T06:39:45;9.48;;;4.07;;
69534;SDS011;56754;51.568;5.048;2023-04-24T06:42:10;10.17;;;4.70;;
69534;SDS011;56754;51.568;5.048;2023-04-24T06:44:35;7.70;;;3.70;;
69534;SDS011;56754;51.568;5.048;2023-04-24T06:47:00;6.80;;;3.43;;
69534;SDS011;56754;51.568;5.048;2023-04-24T06:49:26;5.60;;;2.77;;
69534;SDS011;56754;51.568;5.048;2023-04-24T06:51:51;7.77;;;3.50;;
69534;SDS011;56754;51.568;5.048;2023-04-24T06:54:16;9.02;;;3.25;;
69534;SDS011;56754;51.568;5.048;2023-04-24T06:56:42;7.33;;;3.43;;
69534;SDS011;56754;51.568;5.048;2023-04-24T06:59:07;7.53;;;2.67;;
69534;SDS011;56754;51.568;5.048;2023-04-24T07:01:32;7.17;;;3.07;;
69534;SDS011;56754;51.568;5.048;2023-04-24T07:03:57;7.03;;;2.93;;
69534;SDS011;56754;51.568;5.048;2023-04-24T07:06:23;6.77;;;3.40;;
69534;SDS011;56754;51.568;5.048;2023-04-24T07:08:48;8.30;;;2.57;;
69534;SDS011;56754;51.568;5.048;2023-04-24T07:11:13;8.07;;;2.80;;
69534;SDS011;56754;51.568;5.048;2023-04-24T07:13:38;8.07;;;2.90;;
69534;SDS011;56754;51.568;5.048;2023-04-24T07:16:04;7.22;;;2.72;;
69534;SDS011;56754;51.568;5.048;2023-04-24T07:18:29;7.70;;;2.83;;
69534;SDS011;56754;51.568;5.048;2023-04-24T07:20:55;7.37;;;2.70;;
69534;SDS011;56754;51.568;5.048;2023-04-24T07:23:20;8.30;;;3.30;;
69534;SDS011;56754;51.568;5.048;2023-04-24T07:25:45;7.93;;;2.57;;
69534;SDS011;56754;51.568;5.048;2023-04-24T07:28:11;7.40;;;2.45;;
69534;SDS011;56754;51.568;5.048;2023-04-24T07:30:36;5.97;;;2.33;;
69534;SDS011;56754;51.568;5.048;2023-04-24T07:33:01;6.97;;;2.63;;
69534;SDS011;56754;51.568;5.048;2023-04-24T07:35:26;8.73;;;2.73;;
69534;SDS011;56754;51.568;5.048;2023-04-24T07:37:55;8.07;;;3.00;;
69534;SDS011;56754;51.568;5.048;2023-04-24T07:40:21;7.25;;;2.72;;
69534;SDS011;56754;51.568;5.048;2023-04-24T07:42:47;8.30;;;2.65;;
69534;SDS011;56754;51.568;5.048;2023-04-24T07:45:12;5.83;;;2.53;;
69534;SDS011;56754;51.568;5.048;2023-04-24T07:47:37;6.77;;;2.57;;
69534;SDS011;56754;51.568;5.048;2023-04-24T07:50:03;9.77;;;3.33;;
69534;SDS011;56754;51.568;5.048;2023-04-24T07:52:28;10.55;;;2.70;;
69534;SDS011;56754;51.568;5.048;2023-04-24T07:54:54;7.57;;;2.43;;
69534;SDS011;56754;51.568;5.048;2023-04-24T07:57:20;9.50;;;2.72;;
69534;SDS011;56754;51.568;5.048;2023-04-24T07:59:45;10.70;;;2.63;;
69534;SDS011;56754;51.568;5.048;2023-04-24T08:02:10;8.43;;;2.43;;
69534;SDS011;56754;51.568;5.048;2023-04-24T08:04:35;7.13;;;2.10;;
69534;SDS011;56754;51.568;5.048;2023-04-24T08:07:01;7.73;;;2.10;;
69534;SDS011;56754;51.568;5.048;2023-04-24T08:09:26;9.00;;;2.40;;
69534;SDS011;56754;51.568;5.048;2023-04-24T08:11:51;11.77;;;2.33;;
69534;SDS011;56754;51.568;5.048;2023-04-24T08:14:16;8.73;;;2.67;;
69534;SDS011;56754;51.568;5.048;2023-04-24T08:16:42;9.57;;;2.40;;
69534;SDS011;56754;51.568;5.048;2023-04-24T08:19:07;8.07;;;2.20;;
69534;SDS011;56754;51.568;5.048;2023-04-24T08:21:32;7.90;;;2.30;;
69534;SDS011;56754;51.568;5.048;2023-04-24T08:23:58;8.17;;;2.10;;
69534;SDS011;56754;51.568;5.048;2023-04-24T08:26:23;7.33;;;1.80;;
69534;SDS011;56754;51.568;5.048;2023-04-24T08:28:49;8.10;;;1.90;;
69534;SDS011;56754;51.568;5.048;2023-04-24T08:31:14;9.32;;;2.03;;
69534;SDS011;56754;51.568;5.048;2023-04-24T08:33:39;9.50;;;2.47;;
69534;SDS011;56754;51.568;5.048;2023-04-24T08:36:05;10.63;;;2.27;;
69534;SDS011;56754;51.568;5.048;2023-04-24T08:38:31;9.02;;;2.03;;
69534;SDS011;56754;51.568;5.048;2023-04-24T08:40:57;7.50;;;1.87;;
69534;SDS011;56754;51.568;5.048;2023-04-24T08:43:24;6.93;;;1.60;;
69534;SDS011;56754;51.568;5.048;2023-04-24T08:45:50;9.38;;;1.90;;
69534;SDS011;56754;51.568;5.048;2023-04-24T08:48:16;7.70;;;1.70;;
69534;SDS011;56754;51.568;5.048;2023-04-24T08:50:42;8.88;;;1.80;;
69534;SDS011;56754;51.568;5.048;2023-04-24T08:53:08;7.88;;;1.90;;
69534;SDS011;56754;51.568;5.048;2023-04-24T08:55:33;9.13;;;1.70;;
69534;SDS011;56754;51.568;5.048;2023-04-24T08:57:59;8.23;;;1.48;;
69534;SDS011;56754;51.568;5.048;2023-04-24T09:00:26;7.80;;;1.80;;
69534;SDS011;56754;51.568;5.048;2023-04-24T09:02:54;8.10;;;1.75;;
69534;SDS011;56754;51.568;5.048;2023-04-24T09:05:20;9.50;;;1.60;;
69534;SDS011;56754;51.568;5.048;2023-04-24T09:07:49;7.88;;;1.92;;
69534;SDS011;56754;51.568;5.048;2023-04-24T09:10:18;7.20;;;1.42;;
69534;SDS011;56754;51.568;5.048;2023-04-24T09:12:44;5.75;;;1.40;;
69534;SDS011;56754;51.568;5.048;2023-04-24T09:15:10;9.67;;;2.13;;
69534;SDS011;56754;51.568;5.048;2023-04-24T09:17:36;7.68;;;1.70;;
69534;SDS011;56754;51.568;5.048;2023-04-24T09:20:02;8.07;;;1.63;;
69534;SDS011;56754;51.568;5.048;2023-04-24T09:22:29;6.63;;;1.40;;
69534;SDS011;56754;51.568;5.048;2023-04-24T09:25:02;7.32;;;1.55;;
69534;SDS011;56754;51.568;5.048;2023-04-24T09:27:29;6.82;;;1.33;;
69534;SDS011;56754;51.568;5.048;2023-04-24T09:29:55;6.60;;;1.57;;
69534;SDS011;56754;51.568;5.048;2023-04-24T09:32:22;7.20;;;1.33;;
69534;SDS011;56754;51.568;5.048;2023-04-24T09:34:47;6.25;;;1.40;;
69534;SDS011;56754;51.568;5.048;2023-04-24T09:37:58;5.80;;;1.17;;
69534;SDS011;56754;51.568;5.048;2023-04-24T09:40:23;8.02;;;1.20;;
69534;SDS011;56754;51.568;5.048;2023-04-24T09:42:52;7.30;;;1.50;;
69534;SDS011;56754;51.568;5.048;2023-04-24T09:45:21;8.23;;;1.10;;
69534;SDS011;56754;51.568;5.048;2023-04-24T09:47:50;6.43;;;1.20;;
69534;SDS011;56754;51.568;5.048;2023-04-24T09:50:16;7.07;;;1.30;;
69534;SDS011;56754;51.568;5.048;2023-04-24T09:53:15;7.13;;;1.20;;
69534;SDS011;56754;51.568;5.048;2023-04-24T09:55:35;4.43;;;1.00;;
69534;SDS011;56754;51.568;5.048;2023-04-24T09:58:04;6.80;;;1.10;;
69534;SDS011;56754;51.568;5.048;2023-04-24T10:00:30;5.40;;;1.13;;
69534;SDS011;56754;51.568;5.048;2023-04-24T10:03:00;4.78;;;1.10;;
69534;SDS011;56754;51.568;5.048;2023-04-24T10:07:57;4.13;;;0.90;;
69534;SDS011;56754;51.568;5.048;2023-04-24T10:10:33;5.65;;;1.48;;
69534;SDS011;56754;51.568;5.048;2023-04-24T10:13:00;6.50;;;0.97;;
69534;SDS011;56754;51.568;5.048;2023-04-24T10:15:26;4.93;;;0.80;;
69534;SDS011;56754;51.568;5.048;2023-04-24T10:17:51;5.45;;;1.00;;
69534;SDS011;56754;51.568;5.048;2023-04-24T10:20:18;4.82;;;1.02;;
69534;SDS011;56754;51.568;5.048;2023-04-24T10:22:48;3.37;;;0.60;;
69534;SDS011;56754;51.568;5.048;2023-04-24T10:25:23;6.72;;;1.05;;
69534;SDS011;56754;51.568;5.048;2023-04-24T10:27:49;4.68;;;0.80;;
69534;SDS011;56754;51.568;5.048;2023-04-24T10:30:16;6.65;;;0.70;;
69534;SDS011;56754;51.568;5.048;2023-04-24T10:32:43;8.35;;;1.25;;
69534;SDS011;56754;51.568;5.048;2023-04-24T10:35:09;4.33;;;0.70;;
69534;SDS011;56754;51.568;5.048;2023-04-24T10:37:40;5.28;;;0.90;;
69534;SDS011;56754;51.568;5.048;2023-04-24T10:40:09;4.78;;;0.73;;
69534;SDS011;56754;51.568;5.048;2023-04-24T10:42:39;3.75;;;0.73;;
69534;SDS011;56754;51.568;5.048;2023-04-24T10:45:05;4.20;;;0.70;;
69534;SDS011;56754;51.568;5.048;2023-04-24T10:47:39;7.07;;;0.70;;
69534;SDS011;56754;51.568;5.048;2023-04-24T10:50:08;2.88;;;0.47;;
69534;SDS011;56754;51.568;5.048;2023-04-24T10:52:47;4.78;;;0.60;;
69534;SDS011;56754;51.568;5.048;2023-04-24T10:55:14;4.50;;;0.77;;
69534;SDS011;56754;51.568;5.048;2023-04-24T10:57:39;3.60;;;0.95;;
69534;SDS011;56754;51.568;5.048;2023-04-24T11:00:15;3.23;;;0.50;;
69534;SDS011;56754;51.568;5.048;2023-04-24T11:02:45;3.75;;;0.60;;
69534;SDS011;56754;51.568;5.048;2023-04-24T11:05:12;4.00;;;0.50;;
69534;SDS011;56754;51.568;5.048;2023-04-24T11:10:43;2.78;;;0.40;;
69534;SDS011;56754;51.568;5.048;2023-04-24T11:13:09;3.00;;;0.63;;
69534;SDS011;56754;51.568;5.048;2023-04-24T11:15:35;2.55;;;0.50;;
69534;SDS011;56754;51.568;5.048;2023-04-24T11:18:00;4.73;;;0.60;;
69534;SDS011;56754;51.568;5.048;2023-04-24T11:20:25;3.53;;;0.53;;
69534;SDS011;56754;51.568;5.048;2023-04-24T11:22:52;3.37;;;0.87;;
69534;SDS011;56754;51.568;5.048;2023-04-24T11:25:18;4.85;;;0.73;;
69534;SDS011;56754;51.568;5.048;2023-04-24T11:27:44;5.80;;;0.80;;
69534;SDS011;56754;51.568;5.048;2023-04-24T11:30:10;3.15;;;0.50;;
69534;SDS011;56754;51.568;5.048;2023-04-24T11:32:39;4.60;;;0.63;;
69534;SDS011;56754;51.568;5.048;2023-04-24T11:35:07;3.20;;;0.52;;
69534;SDS011;56754;51.568;5.048;2023-04-24T11:37:41;2.38;;;0.30;;
69534;SDS011;56754;51.568;5.048;2023-04-24T11:40:09;5.45;;;0.75;;
69534;SDS011;56754;51.568;5.048;2023-04-24T11:42:36;2.90;;;0.60;;
69534;SDS011;56754;51.568;5.048;2023-04-24T11:45:13;4.38;;;0.60;;
69534;SDS011;56754;51.568;5.048;2023-04-24T11:47:43;4.40;;;0.68;;
69534;SDS011;56754;51.568;5.048;2023-04-24T11:50:12;5.03;;;0.60;;
69534;SDS011;56754;51.568;5.048;2023-04-24T11:52:46;2.70;;;0.55;;
69534;SDS011;56754;51.568;5.048;2023-04-24T11:57:44;3.78;;;0.40;;
69534;SDS011;56754;51.568;5.048;2023-04-24T12:02:42;3.10;;;0.52;;
69534;SDS011;56754;51.568;5.048;2023-04-24T12:05:07;4.20;;;0.50;;
69534;SDS011;56754;51.568;5.048;2023-04-24T12:07:40;4.05;;;0.73;;
69534;SDS011;56754;51.568;5.048;2023-04-24T12:10:06;2.72;;;0.50;;
69534;SDS011;56754;51.568;5.048;2023-04-24T12:12:32;5.43;;;0.50;;
69534;SDS011;56754;51.568;5.048;2023-04-24T12:14:58;1.07;;;0.30;;
69534;SDS011;56754;51.568;5.048;2023-04-24T12:17:28;5.22;;;0.50;;
69534;SDS011;56754;51.568;5.048;2023-04-24T12:19:58;3.28;;;0.40;;
69534;SDS011;56754;51.568;5.048;2023-04-24T12:22:28;4.43;;;0.70;;
69534;SDS011;56754;51.568;5.048;2023-04-24T12:25:18;4.73;;;0.50;;
69534;SDS011;56754;51.568;5.048;2023-04-24T12:27:52;2.38;;;0.63;;
69534;SDS011;56754;51.568;5.048;2023-04-24T12:30:19;3.45;;;0.52;;
69534;SDS011;56754;51.568;5.048;2023-04-24T12:32:46;5.37;;;0.60;;
69534;SDS011;56754;51.568;5.048;2023-04-24T12:35:13;2.70;;;0.50;;
69534;SDS011;56754;51.568;5.048;2023-04-24T12:37:43;3.97;;;0.60;;
69534;SDS011;56754;51.568;5.048;2023-04-24T12:40:09;3.00;;;0.50;;
69534;SDS011;56754;51.568;5.048;2023-04-24T12:42:41;3.67;;;0.45;;
69534;SDS011;56754;51.568;5.048;2023-04-24T12:45:08;2.40;;;0.30;;
69534;SDS011;56754;51.568;5.048;2023-04-24T12:47:33;2.87;;;0.40;;
69534;SDS011;56754;51.568;5.048;2023-04-24T12:49:59;2.65;;;0.30;;
69534;SDS011;56754;51.568;5.048;2023-04-24T12:52:26;4.55;;;0.40;;
69534;SDS011;56754;51.568;5.048;2023-04-24T12:54:53;2.23;;;0.50;;
69534;SDS011;56754;51.568;5.048;2023-04-24T12:57:20;2.92;;;0.30;;
69534;SDS011;56754;51.568;5.048;2023-04-24T12:59:46;3.38;;;0.30;;
69534;SDS011;56754;51.568;5.048;2023-04-24T13:02:12;1.70;;;0.37;;
69534;SDS011;56754;51.568;5.048;2023-04-24T13:04:37;2.37;;;0.50;;
69534;SDS011;56754;51.568;5.048;2023-04-24T13:07:03;2.22;;;0.30;;
69534;SDS011;56754;51.568;5.048;2023-04-24T13:09:28;2.67;;;0.50;;
69534;SDS011;56754;51.568;5.048;2023-04-24T13:11:53;4.07;;;0.50;;
69534;SDS011;56754;51.568;5.048;2023-04-24T13:14:19;3.45;;;0.50;;
69534;SDS011;56754;51.568;5.048;2023-04-24T13:16:44;3.30;;;0.60;;
69534;SDS011;56754;51.568;5.048;2023-04-24T13:19:10;3.10;;;0.40;;
69534;SDS011;56754;51.568;5.048;2023-04-24T13:21:35;3.80;;;0.40;;
69534;SDS011;56754;51.568;5.048;2023-04-24T13:24:00;3.17;;;0.50;;
69534;SDS011;56754;51.568;5.048;2023-04-24T13:26:26;3.50;;;0.40;;
69534;SDS011;56754;51.568;5.048;2023-04-24T13:28:51;2.10;;;0.40;;
69534;SDS011;56754;51.568;5.048;2023-04-24T13:31:16;1.70;;;0.43;;
69534;SDS011;56754;51.568;5.048;2023-04-24T13:33:42;3.60;;;0.70;;
69534;SDS011;56754;51.568;5.048;2023-04-24T13:36:07;3.17;;;0.57;;
69534;SDS011;56754;51.568;5.048;2023-04-24T13:38:34;1.83;;;0.40;;
69534;SDS011;56754;51.568;5.048;2023-04-24T13:40:59;1.33;;;0.22;;
69534;SDS011;56754;51.568;5.048;2023-04-24T13:43:25;3.97;;;0.40;;
69534;SDS011;56754;51.568;5.048;2023-04-24T13:45:50;3.57;;;0.50;;
69534;SDS011;56754;51.568;5.048;2023-04-24T13:48:15;3.53;;;0.40;;
69534;SDS011;56754;51.568;5.048;2023-04-24T13:50:43;3.13;;;0.67;;
69534;SDS011;56754;51.568;5.048;2023-04-24T13:53:09;3.42;;;0.52;;
69534;SDS011;56754;51.568;5.048;2023-04-24T13:55:34;3.90;;;0.40;;
69534;SDS011;56754;51.568;5.048;2023-04-24T13:57:59;3.33;;;0.60;;
69534;SDS011;56754;51.568;5.048;2023-04-24T14:00:25;4.45;;;0.85;;
69534;SDS011;56754;51.568;5.048;2023-04-24T14:02:50;2.93;;;0.60;;
69534;SDS011;56754;51.568;5.048;2023-04-24T14:05:15;5.27;;;0.80;;
69534;SDS011;56754;51.568;5.048;2023-04-24T14:07:41;3.40;;;0.73;;
69534;SDS011;56754;51.568;5.048;2023-04-24T14:10:07;4.40;;;0.80;;
69534;SDS011;56754;51.568;5.048;2023-04-24T14:12:32;3.28;;;0.60;;
69534;SDS011;56754;51.568;5.048;2023-04-24T14:14:58;4.25;;;0.60;;
69534;SDS011;56754;51.568;5.048;2023-04-24T14:17:24;3.07;;;0.60;;
69534;SDS011;56754;51.568;5.048;2023-04-24T14:19:49;2.77;;;0.50;;
69534;SDS011;56754;51.568;5.048;2023-04-24T14:22:14;3.43;;;0.57;;
69534;SDS011;56754;51.568;5.048;2023-04-24T14:24:39;4.57;;;0.60;;
69534;SDS011;56754;51.568;5.048;2023-04-24T14:27:05;4.87;;;0.70;;
69534;SDS011;56754;51.568;5.048;2023-04-24T14:29:30;4.80;;;0.80;;
69534;SDS011;56754;51.568;5.048;2023-04-24T14:31:55;4.77;;;0.90;;
69534;SDS011;56754;51.568;5.048;2023-04-24T14:34:21;6.23;;;1.07;;
69534;SDS011;56754;51.568;5.048;2023-04-24T14:36:46;4.30;;;1.00;;
69534;SDS011;56754;51.568;5.048;2023-04-24T14:39:11;6.10;;;0.87;;
69534;SDS011;56754;51.568;5.048;2023-04-24T14:41:36;4.87;;;1.07;;
69534;SDS011;56754;51.568;5.048;2023-04-24T14:44:02;5.32;;;1.20;;
69534;SDS011;56754;51.568;5.048;2023-04-24T14:46:29;5.70;;;1.23;;
69534;SDS011;56754;51.568;5.048;2023-04-24T14:48:54;6.75;;;0.73;;